Time;durP1;ratioP1;P1;durP2;ratioP2;P2;SDS_P1;SDS_P2;PMS_P1;PMS_P2;Temp;Humidity;BMP_temperature;BMP_pressure;BME280_temperature;BME280_humidity;BME280_pressure;Samples;Min_cycle;Max_cycle;Signal;HPM_P1;HPM_P2
2022/08/05 00:02:13;;;;;;;0.60;0.60;;;;;23.50;95764.00;;;;5116969;28;20218;-48
2022/08/05 00:04:40;;;;;;;0.70;0.70;;;;;23.40;95770.00;;;;5116959;28;20288;-48
2022/08/05 00:07:06;;;;;;;0.63;0.63;;;;;23.40;95772.00;;;;5116881;28;20221;-49
2022/08/05 00:09:33;;;;;;;0.95;0.95;;;;;23.40;95773.00;;;;5117075;28;20250;-49
2022/08/05 00:12:03;;;;;;;2.17;1.35;;;;;23.40;95767.00;;;;5116910;28;20531;-51
2022/08/05 00:14:31;;;;;;;0.70;0.70;;;;;23.30;95759.00;;;;5098937;28;20641;-50
2022/08/05 00:16:58;;;;;;;0.52;0.52;;;;;23.30;95762.00;;;;5099074;28;20274;-50
2022/08/05 00:19:25;;;;;;;0.57;0.57;;;;;23.20;95769.00;;;;5116708;28;20218;-50
2022/08/05 00:21:52;;;;;;;0.75;0.75;;;;;23.00;95774.00;;;;5116773;28;20204;-49
2022/08/05 00:24:19;;;;;;;0.60;0.60;;;;;22.90;95778.00;;;;5098710;28;20229;-50
2022/08/05 00:26:46;;;;;;;0.70;0.70;;;;;22.90;95766.00;;;;5116697;28;20202;-49
2022/08/05 00:29:15;;;;;;;5.03;1.27;;;;;23.00;95761.00;;;;5116601;28;20633;-49
2022/08/05 00:31:44;;;;;;;0.70;0.70;;;;;22.90;95751.00;;;;5098917;28;20233;-49
2022/08/05 00:34:12;;;;;;;0.75;0.75;;;;;22.80;95760.00;;;;5116531;28;20186;-50
2022/08/05 00:36:38;;;;;;;0.43;0.43;;;;;22.70;95760.00;;;;5116409;28;20221;-49
2022/08/05 00:39:08;;;;;;;0.77;0.77;;;;;22.80;95763.00;;;;5116431;28;20194;-49
2022/08/05 00:41:36;;;;;;;0.40;0.40;;;;;22.90;95767.00;;;;5098348;28;20672;-49
2022/08/05 00:44:03;;;;;;;0.75;0.75;;;;;22.90;95770.00;;;;5116455;28;20220;-48
2022/08/05 00:46:30;;;;;;;0.80;0.80;;;;;22.80;95758.00;;;;5116423;28;20233;-48
2022/08/05 00:48:57;;;;;;;0.60;0.60;;;;;22.80;95771.00;;;;5116356;28;20206;-48
2022/08/05 00:51:24;;;;;;;0.40;0.40;;;;;22.80;95776.00;;;;5116257;28;20194;-48
2022/08/05 00:53:51;;;;;;;0.40;0.40;;;;;22.70;95775.00;;;;5116505;28;20216;-48
2022/08/05 00:56:18;;;;;;;0.93;0.93;;;;;22.40;95791.00;;;;5116190;28;20236;-47
2022/08/05 00:58:45;;;;;;;0.98;0.98;;;;;22.30;95799.00;;;;5116163;28;20213;-48
2022/08/05 01:01:14;;;;;;;1.35;1.25;;;;;22.20;95788.00;;;;5116129;28;20228;-48
2022/08/05 01:03:42;;;;;;;1.17;0.95;;;;;22.00;95803.00;;;;5116090;28;20222;-48
2022/08/05 01:06:09;;;;;;;0.60;0.60;;;;;22.00;95798.00;;;;5116182;28;20205;-47
2022/08/05 01:08:37;;;;;;;0.40;0.40;;;;;21.80;95799.00;;;;5115938;28;20232;-49
2022/08/05 01:11:10;;;;;;;0.73;0.73;;;;;21.60;95800.00;;;;5116110;28;20197;-48
2022/08/05 01:13:43;;;;;;;0.50;0.50;;;;;21.60;95808.00;;;;5116181;28;20255;-48
2022/08/05 01:16:16;;;;;;;1.17;1.17;;;;;21.70;95799.00;;;;5115885;28;20226;-48
2022/08/05 01:18:49;;;;;;;0.57;0.57;;;;;21.80;95812.00;;;;5116033;28;20519;-48
2022/08/05 01:21:34;;;;;;;0.75;0.75;;;;;21.90;95808.00;;;;5115807;28;20235;-47
2022/08/05 01:24:13;;;;;;;1.20;1.15;;;;;22.00;95802.00;;;;5115712;28;20279;-48
2022/08/05 01:26:49;;;;;;;0.85;0.85;;;;;22.10;95803.00;;;;5097995;28;20221;-49
2022/08/05 01:29:23;;;;;;;0.80;0.80;;;;;22.30;95802.00;;;;5115753;28;20212;-48
2022/08/05 01:31:58;;;;;;;0.63;0.63;;;;;22.20;95806.00;;;;5115567;28;20214;-48
2022/08/05 01:34:28;;;;;;;1.00;0.98;;;;;22.30;95807.00;;;;5115648;28;20194;-49
2022/08/05 01:37:01;;;;;;;0.50;0.50;;;;;22.30;95807.00;;;;5115432;28;20251;-49
2022/08/05 01:39:30;;;;;;;0.60;0.60;;;;;22.30;95806.00;;;;5115548;28;20202;-48
2022/08/05 01:42:12;;;;;;;0.60;0.60;;;;;22.40;95811.00;;;;5115453;28;20226;-55
2022/08/05 01:44:40;;;;;;;0.65;0.65;;;;;22.50;95816.00;;;;5115457;28;20201;-49
2022/08/05 01:47:11;;;;;;;0.70;0.70;;;;;22.50;95814.00;;;;5115394;28;20194;-48
2022/08/05 01:49:40;;;;;;;0.60;0.60;;;;;22.60;95811.00;;;;5115519;28;20210;-48
2022/08/05 01:52:08;;;;;;;14.60;1.13;;;;;22.50;95820.00;;;;5115526;28;20296;-48
2022/08/05 01:54:39;;;;;;;0.77;0.77;;;;;22.50;95823.00;;;;5096649;28;20263;-48
2022/08/05 01:57:07;;;;;;;0.75;0.75;;;;;22.20;95828.00;;;;5115302;28;20225;-57
2022/08/05 01:59:36;;;;;;;0.93;0.93;;;;;22.30;95822.00;;;;5097199;28;20251;-48
2022/08/05 02:02:05;;;;;;;1.67;0.93;;;;;22.40;95811.00;;;;5115130;28;20194;-49
2022/08/05 02:04:35;;;;;;;0.60;0.60;;;;;22.40;95814.00;;;;5114810;28;20312;-52
2022/08/05 02:07:03;;;;;;;0.63;0.63;;;;;22.60;95811.00;;;;5115128;28;20217;-48
2022/08/05 02:09:29;;;;;;;1.13;1.13;;;;;22.70;95821.00;;;;5097119;28;20604;-48
2022/08/05 02:12:04;;;;;;;0.50;0.50;;;;;22.70;95818.00;;;;5115315;28;20198;-49
2022/08/05 02:14:37;;;;;;;0.80;0.80;;;;;22.70;95815.00;;;;5114987;28;20197;-47
2022/08/05 02:17:11;;;;;;;0.70;0.70;;;;;22.80;95831.00;;;;5114900;28;20255;-48
2022/08/05 02:19:47;;;;;;;0.50;0.50;;;;;22.90;95831.00;;;;5114942;28;20189;-48
2022/08/05 02:22:18;;;;;;;0.60;0.60;;;;;23.00;95822.00;;;;5114926;28;20218;-48
2022/08/05 02:24:50;;;;;;;0.85;0.82;;;;;23.00;95820.00;;;;5114877;28;20339;-49
2022/08/05 02:27:20;;;;;;;0.63;0.63;;;;;23.10;95830.00;;;;5114778;28;20225;-48
2022/08/05 02:29:48;;;;;;;0.80;0.80;;;;;23.10;95819.00;;;;5114796;28;20267;-48
2022/08/05 02:32:20;;;;;;;0.40;0.40;;;;;23.20;95823.00;;;;5114645;28;20269;-48
2022/08/05 02:34:52;;;;;;;0.43;0.43;;;;;23.20;95832.00;;;;5114694;28;20272;-51
2022/08/05 02:37:19;;;;;;;1.38;1.20;;;;;23.20;95823.00;;;;5114685;28;20215;-48
2022/08/05 02:39:50;;;;;;;0.70;0.70;;;;;23.20;95830.00;;;;5114677;28;20561;-49
2022/08/05 02:42:20;;;;;;;9.60;1.27;;;;;23.10;95837.00;;;;5114777;28;20194;-49
2022/08/05 02:44:48;;;;;;;0.60;0.60;;;;;23.00;95852.00;;;;5114546;28;20232;-49
2022/08/05 02:47:19;;;;;;;0.90;0.90;;;;;23.00;95856.00;;;;5114452;28;20209;-49
2022/08/05 02:49:47;;;;;;;0.90;0.90;;;;;23.00;95860.00;;;;5114570;28;20219;-49
2022/08/05 02:52:16;;;;;;;0.65;0.65;;;;;23.10;95854.00;;;;5114587;28;20202;-49
2022/08/05 02:54:45;;;;;;;0.77;0.77;;;;;23.20;95865.00;;;;5114797;28;20228;-49
2022/08/05 02:57:14;;;;;;;0.60;0.60;;;;;23.20;95867.00;;;;5114327;28;20308;-49
2022/08/05 02:59:43;;;;;;;0.40;0.40;;;;;23.20;95854.00;;;;5114330;28;20189;-49
2022/08/05 03:02:11;;;;;;;11.85;1.00;;;;;23.20;95861.00;;;;5114367;28;20243;-49
2022/08/05 03:04:39;;;;;;;0.75;0.75;;;;;23.20;95865.00;;;;5114764;28;20213;-49
2022/08/05 03:07:09;;;;;;;0.70;0.70;;;;;23.20;95862.00;;;;5114190;28;20359;-48
2022/08/05 03:09:37;;;;;;;0.70;0.70;;;;;23.20;95847.00;;;;5114223;28;20209;-48
2022/08/05 03:12:05;;;;;;;0.88;0.88;;;;;23.10;95846.00;;;;5114159;28;20217;-59
2022/08/05 03:14:34;;;;;;;0.80;0.80;;;;;23.00;95864.00;;;;5114241;28;20190;-48
2022/08/05 03:17:01;;;;;;;0.50;0.50;;;;;23.00;95856.00;;;;5113935;28;20668;-48
2022/08/05 03:19:28;;;;;;;0.77;0.77;;;;;23.00;95859.00;;;;5114015;28;20189;-48
2022/08/05 03:21:55;;;;;;;0.50;0.50;;;;;23.00;95857.00;;;;5113995;28;20212;-47
2022/08/05 03:24:23;;;;;;;0.60;0.60;;;;;23.00;95854.00;;;;5113922;28;20210;-48
2022/08/05 03:26:50;;;;;;;0.57;0.57;;;;;23.00;95840.00;;;;5095986;28;20198;-49
2022/08/05 03:29:17;;;;;;;0.90;0.90;;;;;23.00;95838.00;;;;5095914;28;20217;-49
2022/08/05 03:31:45;;;;;;;1.25;1.20;;;;;22.90;95839.00;;;;5113900;28;20201;-48
2022/08/05 03:34:12;;;;;;;1.13;1.13;;;;;22.70;95842.00;;;;5113720;28;20224;-48
2022/08/05 03:36:38;;;;;;;0.50;0.50;;;;;22.60;95852.00;;;;5113826;28;20209;-48
2022/08/05 03:39:08;;;;;;;1.33;1.25;;;;;22.70;95861.00;;;;5113603;28;20306;-49
2022/08/05 03:41:35;;;;;;;0.60;0.60;;;;;22.70;95864.00;;;;5095845;28;20602;-48
2022/08/05 03:44:02;;;;;;;0.50;0.50;;;;;22.50;95862.00;;;;5113709;28;20724;-48
2022/08/05 03:46:29;;;;;;;0.70;0.70;;;;;22.50;95845.00;;;;5095678;28;20629;-48
2022/08/05 03:48:57;;;;;;;0.60;0.60;;;;;22.50;95846.00;;;;5113755;28;20194;-48
2022/08/05 03:51:28;;;;;;;1.65;1.27;;;;;22.40;95835.00;;;;5113596;28;20292;-49
2022/08/05 03:53:58;;;;;;;1.15;1.15;;;;;22.30;95831.00;;;;5113660;28;20213;-49
2022/08/05 03:56:31;;;;;;;1.05;1.05;;;;;22.30;95832.00;;;;5113453;28;20221;-49
2022/08/05 03:59:01;;;;;;;1.08;1.08;;;;;22.40;95831.00;;;;5113631;28;20259;-49
2022/08/05 04:01:30;;;;;;;0.43;0.43;;;;;22.40;95827.00;;;;5113471;28;20217;-49
2022/08/05 04:04:00;;;;;;;0.55;0.55;;;;;22.30;95837.00;;;;5113625;28;20207;-49
2022/08/05 04:06:29;;;;;;;1.67;1.15;;;;;22.30;95851.00;;;;5095620;28;20237;-49
2022/08/05 04:08:57;;;;;;;0.50;0.50;;;;;22.30;95872.00;;;;5113434;28;20602;-49
2022/08/05 04:11:25;;;;;;;0.98;0.73;;;;;21.70;95881.00;;;;5113431;28;20690;-48
2022/08/05 04:13:55;;;;;;;0.90;0.90;;;;;21.60;95886.00;;;;5113277;28;20213;-49
2022/08/05 04:16:22;;;;;;;0.50;0.50;;;;;21.70;95907.00;;;;5114190;28;20225;-49
2022/08/05 04:18:49;;;;;;;0.80;0.80;;;;;21.50;95917.00;;;;5116851;28;20226;-48
2022/08/05 04:21:16;;;;;;;0.73;0.73;;;;;21.50;95929.00;;;;5098912;28;20726;-49
2022/08/05 04:23:46;;;;;;;0.80;0.80;;;;;21.60;95934.00;;;;5116728;28;20226;-48
2022/08/05 04:26:13;;;;;;;1.33;1.23;;;;;21.60;95932.00;;;;5116733;28;20274;-49
2022/08/05 04:28:41;;;;;;;0.52;0.52;;;;;21.80;95919.00;;;;5116838;28;20197;-49
2022/08/05 04:31:10;;;;;;;0.60;0.60;;;;;21.90;95936.00;;;;5116670;28;20194;-48
2022/08/05 04:33:37;;;;;;;0.68;0.68;;;;;22.00;95937.00;;;;5116840;28;20527;-49
2022/08/05 04:36:04;;;;;;;1.35;0.73;;;;;22.10;95941.00;;;;5116576;28;20245;-49
2022/08/05 04:38:39;;;;;;;0.60;0.60;;;;;22.20;95956.00;;;;5116747;28;20217;-50
2022/08/05 04:41:06;;;;;;;0.50;0.50;;;;;22.30;95981.00;;;;5116648;28;20248;-49
2022/08/05 04:43:33;;;;;;;1.38;1.25;;;;;22.10;96010.00;;;;5116556;28;20629;-49
2022/08/05 04:46:01;;;;;;;0.70;0.70;;;;;21.60;96013.00;;;;5116370;28;20284;-48
2022/08/05 04:48:31;;;;;;;0.85;0.85;;;;;21.80;96014.00;;;;5116566;28;20277;-49
2022/08/05 04:50:58;;;;;;;0.82;0.82;;;;;22.00;96013.00;;;;5116481;28;20277;-50
2022/08/05 04:53:25;;;;;;;0.80;0.80;;;;;22.30;96022.00;;;;5116243;28;20675;-49
2022/08/05 04:55:51;;;;;;;1.20;1.10;;;;;22.40;96032.00;;;;5116304;28;20217;-49
2022/08/05 04:58:18;;;;;;;0.40;0.40;;;;;22.40;96030.00;;;;5116230;28;20826;-48
2022/08/05 05:00:45;;;;;;;0.63;0.63;;;;;22.50;96042.00;;;;5116191;28;20684;-48
2022/08/05 05:03:15;;;;;;;10.15;1.02;;;;;22.50;96058.00;;;;5116046;28;20217;-52
2022/08/05 05:05:42;;;;;;;0.57;0.57;;;;;22.60;96066.00;;;;5116218;28;20195;-49
2022/08/05 05:08:12;;;;;;;0.60;0.60;;;;;22.70;96061.00;;;;5115938;28;20194;-49
2022/08/05 05:10:42;;;;;;;0.55;0.55;;;;;22.80;96059.00;;;;5116064;28;20213;-48
2022/08/05 05:13:09;;;;;;;0.70;0.70;;;;;22.90;96060.00;;;;5116073;28;20269;-48
2022/08/05 05:15:36;;;;;;;0.80;0.80;;;;;23.00;96055.00;;;;5097920;28;20232;-51
2022/08/05 05:18:03;;;;;;;1.80;1.70;;;;;23.10;96056.00;;;;5115889;28;20189;-47
2022/08/05 05:20:31;;;;;;;9.73;1.35;;;;;23.00;96052.00;;;;5115788;28;20289;-49
2022/08/05 05:23:05;;;;;;;8.93;1.67;;;;;23.00;96051.00;;;;5115811;28;20217;-49
2022/08/05 05:25:32;;;;;;;1.42;1.13;;;;;23.00;96065.00;;;;5115877;28;20225;-49
2022/08/05 05:27:59;;;;;;;27.08;2.72;;;;;23.20;96069.00;;;;5114822;28;20254;-48
2022/08/05 05:30:26;;;;;;;1.85;1.65;;;;;23.10;96077.00;;;;5115742;28;20217;-51
2022/08/05 05:32:53;;;;;;;0.70;0.70;;;;;23.10;96075.00;;;;5115796;28;20190;-49
2022/08/05 05:35:21;;;;;;;0.75;0.75;;;;;22.90;96088.00;;;;5115530;28;20538;-50
2022/08/05 05:37:49;;;;;;;0.73;0.73;;;;;22.80;96084.00;;;;5115616;28;20229;-47
2022/08/05 05:40:17;;;;;;;0.45;0.45;;;;;22.90;96075.00;;;;5115562;28;20216;-50
2022/08/05 05:42:44;;;;;;;3.13;2.08;;;;;23.10;96079.00;;;;5115644;28;20221;-53
2022/08/05 05:45:11;;;;;;;0.70;0.70;;;;;23.20;96069.00;;;;5115367;28;20190;-49
2022/08/05 05:47:39;;;;;;;0.75;0.75;;;;;23.30;96074.00;;;;5115504;28;20200;-52
2022/08/05 05:50:07;;;;;;;0.40;0.40;;;;;23.60;96067.00;;;;5115396;28;20230;-49
2022/08/05 05:52:34;;;;;;;1.00;1.00;;;;;23.40;96078.00;;;;5115405;28;20198;-49
2022/08/05 05:55:03;;;;;;;1.00;1.00;;;;;23.50;96074.00;;;;5115402;28;20269;-52
2022/08/05 05:57:32;;;;;;;0.70;0.70;;;;;23.60;96073.00;;;;5115582;28;20284;-49
2022/08/05 05:59:59;;;;;;;32.90;1.30;;;;;23.70;96065.00;;;;5115216;28;20509;-51
2022/08/05 06:02:26;;;;;;;0.55;0.55;;;;;23.80;96065.00;;;;5115149;28;20191;-50
2022/08/05 06:04:52;;;;;;;0.75;0.75;;;;;23.90;96063.00;;;;5115179;28;20303;-51
2022/08/05 06:07:25;;;;;;;1.50;1.50;;;;;24.00;96069.00;;;;5114961;28;20221;-50
2022/08/05 06:09:52;;;;;;;2.95;1.38;;;;;24.10;96066.00;;;;5115025;28;20527;-51
2022/08/05 06:12:22;;;;;;;0.70;0.70;;;;;24.20;96066.00;;;;5096866;28;20692;-51
2022/08/05 06:14:49;;;;;;;0.60;0.60;;;;;24.30;96065.00;;;;5115028;28;20367;-51
2022/08/05 06:17:15;;;;;;;0.90;0.90;;;;;24.40;96061.00;;;;5114789;28;20243;-49
2022/08/05 06:19:43;;;;;;;0.50;0.50;;;;;24.40;96064.00;;;;5096841;28;20633;-48
2022/08/05 06:22:09;;;;;;;0.50;0.50;;;;;24.60;96071.00;;;;5114711;28;20198;-49
2022/08/05 06:24:41;;;;;;;0.80;0.80;;;;;24.60;96084.00;;;;5114621;28;20553;-48
2022/08/05 06:27:08;;;;;;;0.73;0.73;;;;;24.70;96084.00;;;;5114831;28;20208;-48
2022/08/05 06:29:35;;;;;;;0.32;0.32;;;;;24.20;96086.00;;;;5114662;28;20313;-48
2022/08/05 06:32:02;;;;;;;0.50;0.50;;;;;24.00;96078.00;;;;5114650;28;20584;-48
2022/08/05 06:34:29;;;;;;;0.43;0.43;;;;;24.10;96078.00;;;;5096643;28;20591;-49
2022/08/05 06:36:56;;;;;;;0.63;0.63;;;;;24.20;96075.00;;;;5114476;28;20213;-48
2022/08/05 06:39:26;;;;;;;1.30;1.20;;;;;24.40;96082.00;;;;5114349;28;20198;-47
2022/08/05 06:41:56;;;;;;;3.47;0.60;;;;;24.50;96078.00;;;;5114502;28;20232;-48
2022/08/05 06:44:23;;;;;;;0.40;0.40;;;;;24.70;96080.00;;;;5096595;28;20186;-49
2022/08/05 06:46:51;;;;;;;0.40;0.40;;;;;24.60;96091.00;;;;5114491;28;20331;-49
2022/08/05 06:49:18;;;;;;;0.60;0.60;;;;;24.90;96097.00;;;;5114495;28;20266;-49
2022/08/05 06:51:45;;;;;;;0.60;0.60;;;;;25.00;96098.00;;;;5114581;28;20297;-49
2022/08/05 06:54:12;;;;;;;0.52;0.52;;;;;25.10;96097.00;;;;5114561;28;20233;-52
2022/08/05 06:56:39;;;;;;;0.40;0.40;;;;;24.90;96098.00;;;;5114347;28;20305;-49
2022/08/05 06:59:06;;;;;;;0.45;0.45;;;;;25.10;96098.00;;;;5096393;28;20334;-49
2022/08/05 07:01:33;;;;;;;0.40;0.40;;;;;25.10;96107.00;;;;5096306;28;20583;-49
2022/08/05 07:04:01;;;;;;;0.60;0.60;;;;;25.20;96110.00;;;;5114153;28;20665;-49
2022/08/05 07:06:28;;;;;;;0.93;0.93;;;;;25.20;96118.00;;;;5114286;28;20621;-51
2022/08/05 07:08:55;;;;;;;0.40;0.40;;;;;25.30;96116.00;;;;5114242;28;20274;-52
2022/08/05 07:11:22;;;;;;;0.60;0.60;;;;;25.60;96126.00;;;;5114234;28;20201;-49
2022/08/05 07:16:49;;;;;;;0.60;0.60;;;;;25.50;96117.00;;;;5113969;28;20225;-54
2022/08/05 07:19:20;;;;;;;0.50;0.50;;;;;25.60;96131.00;;;;5114046;28;20197;-49
2022/08/05 07:21:49;;;;;;;0.63;0.63;;;;;25.50;96130.00;;;;5113983;28;20270;-53
2022/08/05 07:24:16;;;;;;;0.65;0.65;;;;;25.40;96134.00;;;;5114084;28;20202;-49
2022/08/05 07:26:44;;;;;;;0.47;0.47;;;;;25.50;96139.00;;;;5113824;28;20224;-49
2022/08/05 07:29:14;;;;;;;1.38;0.95;;;;;25.70;96135.00;;;;5113988;28;20198;-49
2022/08/05 07:31:41;;;;;;;0.40;0.40;;;;;25.60;96139.00;;;;5113934;28;20217;-49
2022/08/05 07:34:08;;;;;;;0.43;0.43;;;;;25.50;96136.00;;;;5113862;28;20221;-52
2022/08/05 07:36:36;;;;;;;0.57;0.57;;;;;25.40;96138.00;;;;5113726;28;20267;-49
2022/08/05 07:39:04;;;;;;;0.63;0.63;;;;;25.40;96136.00;;;;5113780;28;20251;-49
2022/08/05 07:41:31;;;;;;;0.70;0.70;;;;;25.30;96141.00;;;;5113834;28;20202;-51
2022/08/05 07:43:59;;;;;;;0.90;0.90;;;;;25.30;96144.00;;;;5113749;28;20194;-49
2022/08/05 07:46:28;;;;;;;0.50;0.50;;;;;25.20;96141.00;;;;5113800;28;20284;-49
2022/08/05 07:48:56;;;;;;;0.50;0.50;;;;;25.50;96141.00;;;;5113690;28;20640;-49
2022/08/05 07:51:23;;;;;;;0.50;0.50;;;;;25.60;96144.00;;;;5096792;28;20228;-49
2022/08/05 07:53:51;;;;;;;0.88;0.88;;;;;25.60;96144.00;;;;5117182;28;20217;-51
2022/08/05 07:56:18;;;;;;;0.50;0.50;;;;;25.60;96133.00;;;;5117058;28;20267;-50
2022/08/05 07:58:45;;;;;;;0.95;0.95;;;;;25.40;96121.00;;;;5117216;28;20314;-49
2022/08/05 08:01:12;;;;;;;0.43;0.43;;;;;25.70;96121.00;;;;5099100;28;20198;-50
2022/08/05 08:03:39;;;;;;;0.70;0.70;;;;;26.00;96126.00;;;;5117224;28;20213;-49
2022/08/05 08:06:06;;;;;;;0.60;0.60;;;;;26.10;96131.00;;;;5117154;28;20596;-49
2022/08/05 08:08:33;;;;;;;0.75;0.75;;;;;25.90;96117.00;;;;5117025;28;20202;-49
2022/08/05 08:11:01;;;;;;;0.50;0.50;;;;;26.20;96118.00;;;;5116959;28;20286;-49
2022/08/05 08:13:28;;;;;;;0.93;0.93;;;;;26.40;96118.00;;;;5116856;28;20228;-49
2022/08/05 08:15:55;;;;;;;0.40;0.40;;;;;26.40;96112.00;;;;5116793;28;20312;-49
2022/08/05 08:18:21;;;;;;;0.50;0.50;;;;;26.50;96111.00;;;;5116725;28;20250;-49
2022/08/05 08:20:50;;;;;;;5.35;0.98;;;;;26.70;96099.00;;;;5116839;28;20208;-50
2022/08/05 08:23:17;;;;;;;0.70;0.70;;;;;26.90;96099.00;;;;5116876;28;20205;-50
2022/08/05 08:25:44;;;;;;;0.80;0.80;;;;;26.90;96095.00;;;;5098677;28;20534;-49
2022/08/05 08:28:12;;;;;;;0.50;0.50;;;;;26.80;96110.00;;;;5116794;28;20190;-49
2022/08/05 08:30:39;;;;;;;0.57;0.57;;;;;26.60;96091.00;;;;5116714;28;20228;-49
2022/08/05 08:33:09;;;;;;;0.68;0.68;;;;;26.70;96090.00;;;;5116625;28;20311;-49
2022/08/05 08:35:36;;;;;;;0.50;0.50;;;;;26.80;96088.00;;;;5116507;28;20190;-49
2022/08/05 08:38:04;;;;;;;7.30;0.82;;;;;26.70;96089.00;;;;5098654;28;20288;-49
2022/08/05 08:40:34;;;;;;;0.40;0.40;;;;;26.80;96093.00;;;;5116533;28;20208;-49
2022/08/05 08:43:01;;;;;;;0.40;0.40;;;;;26.80;96089.00;;;;5116350;28;20210;-49
2022/08/05 08:45:31;;;;;;;0.60;0.60;;;;;26.70;96077.00;;;;5098572;28;20538;-49
2022/08/05 08:48:01;;;;;;;0.82;0.82;;;;;26.90;96079.00;;;;5098443;28;20218;-49
2022/08/05 08:50:29;;;;;;;0.57;0.57;;;;;26.90;96075.00;;;;5116374;28;20244;-49
2022/08/05 08:53:01;;;;;;;0.60;0.60;;;;;27.00;96064.00;;;;5116257;28;20665;-49
2022/08/05 08:55:28;;;;;;;0.90;0.90;;;;;27.20;96072.00;;;;5116300;28;20292;-49
2022/08/05 08:57:55;;;;;;;1.00;1.00;;;;;27.40;96059.00;;;;5116251;28;20194;-49
2022/08/05 09:00:22;;;;;;;0.50;0.50;;;;;27.60;96059.00;;;;5116196;28;20285;-49
2022/08/05 09:02:51;;;;;;;0.90;0.90;;;;;27.60;96066.00;;;;5114760;28;20374;-49
2022/08/05 09:05:19;;;;;;;0.40;0.40;;;;;27.60;96070.00;;;;5116006;28;20270;-49
2022/08/05 09:07:46;;;;;;;1.30;1.08;;;;;27.80;96058.00;;;;5116052;28;20190;-50
2022/08/05 09:10:14;;;;;;;0.90;0.90;;;;;27.80;96052.00;;;;5115937;28;20694;-51
2022/08/05 09:12:40;;;;;;;0.60;0.60;;;;;28.00;96050.00;;;;5116203;28;20198;-51
2022/08/05 09:15:08;;;;;;;0.60;0.60;;;;;27.90;96048.00;;;;5115989;28;20513;-50
2022/08/05 09:17:35;;;;;;;0.60;0.60;;;;;27.90;96048.00;;;;5115873;28;20222;-49
2022/08/05 09:20:05;;;;;;;0.63;0.63;;;;;28.30;96040.00;;;;5097963;28;20305;-49
2022/08/05 09:23:04;;;;;;;0.40;0.40;;;;;27.90;96044.00;;;;5115890;28;20226;-50
2022/08/05 09:25:31;;;;;;;0.73;0.70;;;;;27.80;96051.00;;;;5098046;28;20230;-49
2022/08/05 09:28:11;;;;;;;0.60;0.60;;;;;28.00;96051.00;;;;5115618;28;20225;-50
2022/08/05 09:30:41;;;;;;;0.60;0.60;;;;;28.10;96041.00;;;;5115834;28;20201;-49
2022/08/05 09:33:10;;;;;;;0.70;0.70;;;;;28.00;96048.00;;;;5097860;28;20327;-53
2022/08/05 09:35:51;;;;;;;0.60;0.60;;;;;28.30;96046.00;;;;5115643;28;20194;-49
2022/08/05 09:38:18;;;;;;;0.85;0.85;;;;;28.10;96054.00;;;;5115700;28;20462;-48
2022/08/05 09:40:45;;;;;;;0.63;0.63;;;;;28.40;96046.00;;;;5097967;28;20202;-50
2022/08/05 09:43:27;;;;;;;0.63;0.63;;;;;28.50;96048.00;;;;5115734;28;20230;-50
2022/08/05 09:45:56;;;;;;;1.30;1.30;;;;;28.60;96043.00;;;;5097693;28;20237;-50
2022/08/05 09:48:24;;;;;;;0.50;0.50;;;;;28.70;96042.00;;;;5115946;28;20190;-50
2022/08/05 09:50:54;;;;;;;0.98;0.98;;;;;28.90;96043.00;;;;5115587;28;20300;-49
2022/08/05 09:53:21;;;;;;;0.43;0.43;;;;;29.00;96041.00;;;;5115712;28;20791;-50
2022/08/05 09:55:55;;;;;;;0.70;0.70;;;;;29.30;96038.00;;;;5097330;28;20214;-49
2022/08/05 09:58:23;;;;;;;0.60;0.60;;;;;29.40;96041.00;;;;5115761;28;20186;-49
2022/08/05 10:00:55;;;;;;;0.70;0.70;;;;;29.50;96040.00;;;;5115445;28;20209;-50
2022/08/05 10:03:25;;;;;;;0.40;0.40;;;;;29.60;96039.00;;;;5115414;28;20276;-49
2022/08/05 10:06:04;;;;;;;0.50;0.50;;;;;29.60;96042.00;;;;5115513;28;20193;-50
2022/08/05 10:08:31;;;;;;;0.65;0.65;;;;;29.80;96040.00;;;;5115255;28;20216;-52
2022/08/05 10:11:03;;;;;;;0.70;0.70;;;;;30.10;96033.00;;;;5115429;28;20228;-52
2022/08/05 10:13:33;;;;;;;0.80;0.80;;;;;30.00;96041.00;;;;5115003;28;20310;-49
2022/08/05 10:15:59;;;;;;;0.57;0.57;;;;;30.40;96033.00;;;;5115007;28;20214;-51
2022/08/05 10:18:26;;;;;;;0.60;0.60;;;;;30.50;96025.00;;;;5115194;28;20289;-52
2022/08/05 10:20:56;;;;;;;0.52;0.52;;;;;30.80;96027.00;;;;5115001;28;20625;-48
2022/08/05 10:23:26;;;;;;;0.60;0.60;;;;;30.70;96022.00;;;;5114961;28;20189;-48
2022/08/05 10:25:54;;;;;;;0.75;0.70;;;;;30.90;96015.00;;;;5114910;28;20236;-49
2022/08/05 10:28:24;;;;;;;0.65;0.60;;;;;30.80;96010.00;;;;5114755;28;20507;-48
2022/08/05 10:30:52;;;;;;;0.60;0.60;;;;;30.90;96011.00;;;;5114699;28;20218;-49
2022/08/05 10:33:19;;;;;;;1.65;1.55;;;;;31.00;96013.00;;;;5114786;28;20182;-49
2022/08/05 10:35:49;;;;;;;0.60;0.60;;;;;31.30;96010.00;;;;5114683;28;20209;-52
2022/08/05 10:38:17;;;;;;;0.63;0.63;;;;;31.20;96016.00;;;;5114711;28;20225;-49
2022/08/05 10:40:53;;;;;;;0.70;0.70;;;;;31.30;96014.00;;;;5114637;28;20228;-50
2022/08/05 10:43:33;;;;;;;0.60;0.60;;;;;30.60;96014.00;;;;5096603;28;20213;-49
2022/08/05 10:46:02;;;;;;;0.60;0.60;;;;;30.10;96009.00;;;;5096731;28;20243;-49
2022/08/05 10:48:36;;;;;;;0.57;0.57;;;;;30.70;96000.00;;;;5114373;28;20218;-49
2022/08/05 10:51:09;;;;;;;0.63;0.63;;;;;30.60;96000.00;;;;5096544;28;20201;-50
2022/08/05 10:53:39;;;;;;;0.70;0.70;;;;;30.70;96006.00;;;;5114582;28;20237;-50
2022/08/05 10:56:08;;;;;;;0.80;0.80;;;;;30.30;96002.00;;;;5114372;28;20218;-48
2022/08/05 10:58:36;;;;;;;0.50;0.50;;;;;30.70;96008.00;;;;5114343;28;20190;-49
2022/08/05 11:01:06;;;;;;;0.68;0.68;;;;;31.10;96006.00;;;;5114346;28;20246;-49
2022/08/05 11:03:34;;;;;;;0.70;0.70;;;;;31.70;96003.00;;;;5114322;28;20225;-51
2022/08/05 11:06:07;;;;;;;0.70;0.70;;;;;31.80;96000.00;;;;5114120;28;20228;-49
2022/08/05 11:08:34;;;;;;;0.88;0.88;;;;;31.60;95988.00;;;;5114355;28;20537;-49
2022/08/05 11:11:34;;;;;;;0.63;0.63;;;;;31.40;96000.00;;;;5114228;28;20557;-49
2022/08/05 11:14:02;;;;;;;0.93;0.93;;;;;32.00;96000.00;;;;5113216;28;20218;-49
2022/08/05 11:16:29;;;;;;;1.42;1.33;;;;;32.60;95994.00;;;;5095866;28;20248;-48
2022/08/05 11:19:25;;;;;;;0.60;0.60;;;;;33.00;96003.00;;;;5114073;28;20215;-49
2022/08/05 11:21:52;;;;;;;0.50;0.50;;;;;32.20;96007.00;;;;5114069;28;20649;-49
2022/08/05 11:24:20;;;;;;;0.60;0.60;;;;;32.20;96011.00;;;;5113973;28;20254;-49
2022/08/05 11:26:48;;;;;;;0.98;0.98;;;;;32.40;96007.00;;;;5113020;28;20540;-51
2022/08/05 11:29:36;;;;;;;0.60;0.60;;;32.50;19.70;32.20;96001.00;;;;5113862;28;20225;-50
2022/08/05 11:32:23;;;;;;;0.73;0.73;;;;;32.60;95998.00;;;;5114025;28;20251;-50
2022/08/05 11:34:49;;;;;;;0.90;0.90;;;32.90;19.40;32.80;96008.00;;;;5096116;28;20578;-50
2022/08/05 11:38:02;;;;;;;0.70;0.70;;;33.00;19.70;33.20;96001.00;;;;5113853;28;20245;-50
2022/08/05 11:41:01;;;;;;;0.90;0.90;;;33.10;19.60;33.10;95995.00;;;;5113839;28;20361;-50
2022/08/05 11:43:29;;;;;;;0.60;0.60;;;33.20;19.50;32.60;96008.00;;;;5113900;28;20682;-53
2022/08/05 11:45:56;;;;;;;0.60;0.60;;;;;31.80;96029.00;;;;5113731;28;20245;-50
2022/08/05 11:48:24;;;;;;;0.73;0.73;;;;;30.80;96023.00;;;;5113694;28;20556;-50
2022/08/05 11:50:51;;;;;;;0.60;0.60;;;;;31.40;96009.00;;;;5113838;28;20276;-50
2022/08/05 11:53:22;;;;;;;0.70;0.70;;;;;31.80;96010.00;;;;5113725;28;20194;-51
2022/08/05 11:55:55;;;;;;;0.80;0.80;;;;;32.50;95989.00;;;;5113629;28;20186;-51
2022/08/05 11:58:29;;;;;;;0.95;0.95;;;32.80;19.90;32.80;95986.00;;;;5113548;28;20673;-49
2022/08/05 12:01:04;;;;;;;0.70;0.70;;;32.80;20.10;32.90;95989.00;;;;5113628;28;20497;-48
2022/08/05 12:03:42;;;;;;;0.80;0.80;;;33.00;20.00;32.40;96006.00;;;;5113498;28;20227;-49
2022/08/05 12:06:09;;;;;;;0.90;0.90;;;;;30.80;96006.00;;;;5113464;28;20277;-49
2022/08/05 12:08:44;;;;;;;0.80;0.80;;;;;31.40;96015.00;;;;5113339;28;20218;-49
2022/08/05 12:11:19;;;;;;;0.90;0.90;;;;;31.30;96008.00;;;;5113438;28;20629;-49
2022/08/05 12:13:57;;;;;;;0.68;0.68;;;31.40;21.10;31.50;96006.00;;;;5113239;28;20201;-49
2022/08/05 12:16:30;;;;;;;1.27;0.90;;;31.60;21.50;31.80;96008.00;;;;5113335;28;20811;-49
2022/08/05 12:18:57;;;;;;;0.93;0.93;;;31.90;22.30;32.30;96000.00;;;;5113370;28;20277;-50
2022/08/05 12:21:26;;;;;;;0.70;0.70;;;32.30;21.40;32.60;96002.00;;;;5113370;28;20200;-50
2022/08/05 12:24:00;;;;;;;0.98;0.98;;;32.60;20.90;32.50;95986.00;;;;5113200;28;20575;-50
2022/08/05 12:26:31;;;;;;;1.38;1.27;;;32.60;20.00;31.60;95982.00;;;;5113217;28;20231;-50
2022/08/05 12:28:58;;;;;;;1.05;1.05;;;32.00;21.00;31.80;96003.00;;;;5113220;28;20202;-56